sensor_id;sensor_type;location;lat;lon;timestamp;pressure;altitude;pressure_sealevel;temperature;humidity
20455;BME280;10386;54.314;10.022;2023-06-22T00:01:19;102144.59;;;15.05;100.00
20455;BME280;10386;54.314;10.022;2023-06-22T00:03:46;102141.00;;;15.17;100.00
20455;BME280;10386;54.314;10.022;2023-06-22T00:06:13;102128.78;;;15.22;100.00
20455;BME280;10386;54.314;10.022;2023-06-22T00:08:40;102133.25;;;15.23;100.00
20455;BME280;10386;54.314;10.022;2023-06-22T00:11:07;102136.72;;;15.13;100.00
20455;BME280;10386;54.314;10.022;2023-06-22T00:13:34;102135.41;;;14.93;100.00
20455;BME280;10386;54.314;10.022;2023-06-22T00:16:01;102135.13;;;14.84;100.00
20455;BME280;10386;54.314;10.022;2023-06-22T00:18:28;102128.47;;;14.88;100.00
20455;BME280;10386;54.314;10.022;2023-06-22T00:20:59;102129.88;;;14.81;100.00
20455;BME280;10386;54.314;10.022;2023-06-22T00:23:26;102130.91;;;14.66;100.00
20455;BME280;10386;54.314;10.022;2023-06-22T00:25:53;102123.91;;;14.62;100.00
20455;BME280;10386;54.314;10.022;2023-06-22T00:28:20;102117.97;;;14.55;100.00
20455;BME280;10386;54.314;10.022;2023-06-22T00:30:48;102117.53;;;14.61;100.00
20455;BME280;10386;54.314;10.022;2023-06-22T00:33:15;102108.72;;;14.70;100.00
20455;BME280;10386;54.314;10.022;2023-06-22T00:35:43;102107.72;;;14.59;100.00
20455;BME280;10386;54.314;10.022;2023-06-22T00:38:10;102111.78;;;14.39;100.00
20455;BME280;10386;54.314;10.022;2023-06-22T00:40:37;102094.47;;;14.39;100.00
20455;BME280;10386;54.314;10.022;2023-06-22T00:43:05;102087.91;;;14.55;100.00
20455;BME280;10386;54.314;10.022;2023-06-22T00:45:32;102084.09;;;14.58;100.00
20455;BME280;10386;54.314;10.022;2023-06-22T00:47:59;102087.75;;;14.44;100.00
20455;BME280;10386;54.314;10.022;2023-06-22T00:50:29;102092.38;;;14.30;100.00
20455;BME280;10386;54.314;10.022;2023-06-22T00:53:06;102086.13;;;14.28;100.00
20455;BME280;10386;54.314;10.022;2023-06-22T00:55:46;102077.66;;;14.32;100.00
20455;BME280;10386;54.314;10.022;2023-06-22T00:58:19;102082.91;;;14.35;100.00
20455;BME280;10386;54.314;10.022;2023-06-22T01:00:48;102073.03;;;14.33;100.00
20455;BME280;10386;54.314;10.022;2023-06-22T01:03:15;102080.16;;;14.35;100.00
20455;BME280;10386;54.314;10.022;2023-06-22T01:05:44;102073.16;;;14.31;100.00
20455;BME280;10386;54.314;10.022;2023-06-22T01:08:27;102070.72;;;14.27;100.00
20455;BME280;10386;54.314;10.022;2023-06-22T01:11:07;102070.84;;;14.25;100.00
20455;BME280;10386;54.314;10.022;2023-06-22T01:16:33;102060.31;;;14.19;100.00
20455;BME280;10386;54.314;10.022;2023-06-22T01:21:44;102060.91;;;14.10;100.00
20455;BME280;10386;54.314;10.022;2023-06-22T01:24:22;102058.38;;;14.07;100.00
20455;BME280;10386;54.314;10.022;2023-06-22T01:27:56;102059.16;;;14.09;100.00
20455;BME280;10386;54.314;10.022;2023-06-22T01:29:57;102054.38;;;13.99;100.00
20455;BME280;10386;54.314;10.022;2023-06-22T01:32:30;102063.56;;;13.98;100.00
20455;BME280;10386;54.314;10.022;2023-06-22T01:35:00;102048.44;;;13.92;100.00
20455;BME280;10386;54.314;10.022;2023-06-22T01:37:28;102046.06;;;14.00;100.00
20455;BME280;10386;54.314;10.022;2023-06-22T01:39:56;102033.78;;;14.07;100.00
20455;BME280;10386;54.314;10.022;2023-06-22T01:42:24;102026.97;;;14.14;100.00
20455;BME280;10386;54.314;10.022;2023-06-22T01:44:53;102029.41;;;14.05;100.00
20455;BME280;10386;54.314;10.022;2023-06-22T01:47:22;102024.34;;;13.99;100.00
20455;BME280;10386;54.314;10.022;2023-06-22T01:49:50;102028.69;;;13.75;100.00
20455;BME280;10386;54.314;10.022;2023-06-22T01:52:20;102021.84;;;13.82;100.00
20455;BME280;10386;54.314;10.022;2023-06-22T01:54:50;102013.06;;;13.91;100.00
20455;BME280;10386;54.314;10.022;2023-06-22T01:57:17;102012.09;;;13.92;100.00
20455;BME280;10386;54.314;10.022;2023-06-22T02:00:00;102021.97;;;13.67;100.00
20455;BME280;10386;54.314;10.022;2023-06-22T02:02:33;102025.00;;;13.76;100.00
20455;BME280;10386;54.314;10.022;2023-06-22T02:05:06;102015.78;;;13.91;100.00
20455;BME280;10386;54.314;10.022;2023-06-22T02:07:41;102016.66;;;13.91;100.00
20455;BME280;10386;54.314;10.022;2023-06-22T02:10:09;102017.97;;;13.72;100.00
20455;BME280;10386;54.314;10.022;2023-06-22T02:12:39;102018.16;;;13.83;100.00
20455;BME280;10386;54.314;10.022;2023-06-22T02:15:09;102024.81;;;13.65;100.00
20455;BME280;10386;54.314;10.022;2023-06-22T02:17:36;102020.69;;;13.58;100.00
20455;BME280;10386;54.314;10.022;2023-06-22T02:20:03;102022.19;;;13.50;100.00
20455;BME280;10386;54.314;10.022;2023-06-22T02:22:35;102018.66;;;13.62;100.00
20455;BME280;10386;54.314;10.022;2023-06-22T02:25:02;102015.84;;;13.63;100.00
20455;BME280;10386;54.314;10.022;2023-06-22T02:27:29;102007.84;;;13.60;100.00
20455;BME280;10386;54.314;10.022;2023-06-22T02:29:56;102002.50;;;13.59;100.00
20455;BME280;10386;54.314;10.022;2023-06-22T02:32:23;101997.97;;;13.72;100.00
20455;BME280;10386;54.314;10.022;2023-06-22T02:34:50;101987.09;;;13.58;100.00
20455;BME280;10386;54.314;10.022;2023-06-22T02:37:17;101991.59;;;13.45;100.00
20455;BME280;10386;54.314;10.022;2023-06-22T02:39:44;101986.72;;;13.50;100.00
20455;BME280;10386;54.314;10.022;2023-06-22T02:42:11;101984.97;;;13.49;100.00
20455;BME280;10386;54.314;10.022;2023-06-22T02:44:38;101987.97;;;13.44;100.00
20455;BME280;10386;54.314;10.022;2023-06-22T02:47:05;101980.38;;;13.49;100.00
20455;BME280;10386;54.314;10.022;2023-06-22T02:49:32;101978.75;;;13.47;100.00
20455;BME280;10386;54.314;10.022;2023-06-22T02:51:58;101977.38;;;13.54;100.00
20455;BME280;10386;54.314;10.022;2023-06-22T02:54:25;101967.06;;;13.45;100.00
20455;BME280;10386;54.314;10.022;2023-06-22T02:56:52;101973.88;;;13.38;100.00
20455;BME280;10386;54.314;10.022;2023-06-22T02:59:19;101969.03;;;13.29;100.00
20455;BME280;10386;54.314;10.022;2023-06-22T03:01:50;101965.19;;;13.31;100.00
20455;BME280;10386;54.314;10.022;2023-06-22T03:04:18;101958.88;;;13.31;100.00
20455;BME280;10386;54.314;10.022;2023-06-22T03:06:44;101959.88;;;13.30;100.00
20455;BME280;10386;54.314;10.022;2023-06-22T03:09:17;101955.38;;;13.29;100.00
20455;BME280;10386;54.314;10.022;2023-06-22T03:11:44;101962.00;;;13.39;100.00
20455;BME280;10386;54.314;10.022;2023-06-22T03:14:11;101960.50;;;13.47;100.00
20455;BME280;10386;54.314;10.022;2023-06-22T03:16:38;101953.09;;;13.49;100.00
20455;BME280;10386;54.314;10.022;2023-06-22T03:19:07;101952.88;;;13.66;100.00
20455;BME280;10386;54.314;10.022;2023-06-22T03:21:33;101946.50;;;13.79;100.00
20455;BME280;10386;54.314;10.022;2023-06-22T03:24:00;101943.28;;;13.99;100.00
20455;BME280;10386;54.314;10.022;2023-06-22T03:26:27;101928.59;;;14.53;100.00
20455;BME280;10386;54.314;10.022;2023-06-22T03:28:54;101928.53;;;14.92;100.00
20455;BME280;10386;54.314;10.022;2023-06-22T03:31:21;101925.75;;;15.29;100.00
20455;BME280;10386;54.314;10.022;2023-06-22T03:33:49;101926.16;;;15.84;100.00
20455;BME280;10386;54.314;10.022;2023-06-22T03:36:19;101934.31;;;16.20;100.00
20455;BME280;10386;54.314;10.022;2023-06-22T03:38:47;101951.03;;;16.28;100.00
20455;BME280;10386;54.314;10.022;2023-06-22T03:41:14;101966.59;;;15.81;100.00
20455;BME280;10386;54.314;10.022;2023-06-22T03:43:41;101981.16;;;15.45;100.00
20455;BME280;10386;54.314;10.022;2023-06-22T03:46:08;101995.25;;;15.15;100.00
20455;BME280;10386;54.314;10.022;2023-06-22T03:48:35;101986.16;;;15.02;100.00
20455;BME280;10386;54.314;10.022;2023-06-22T03:51:02;101990.13;;;15.10;100.00
20455;BME280;10386;54.314;10.022;2023-06-22T03:53:32;101989.00;;;15.13;100.00
20455;BME280;10386;54.314;10.022;2023-06-22T03:55:59;102001.53;;;15.29;100.00
20455;BME280;10386;54.314;10.022;2023-06-22T03:58:26;101997.34;;;15.48;100.00
20455;BME280;10386;54.314;10.022;2023-06-22T04:00:53;102003.66;;;15.61;100.00
20455;BME280;10386;54.314;10.022;2023-06-22T04:03:20;102018.88;;;15.53;100.00
20455;BME280;10386;54.314;10.022;2023-06-22T04:05:47;102020.31;;;15.46;100.00
20455;BME280;10386;54.314;10.022;2023-06-22T04:08:15;102028.16;;;15.75;100.00
20455;BME280;10386;54.314;10.022;2023-06-22T04:10:42;102033.69;;;16.35;100.00
20455;BME280;10386;54.314;10.022;2023-06-22T04:13:09;102040.78;;;16.14;100.00
20455;BME280;10386;54.314;10.022;2023-06-22T04:15:36;102038.53;;;16.55;100.00
20455;BME280;10386;54.314;10.022;2023-06-22T04:18:03;102043.63;;;16.48;100.00
20455;BME280;10386;54.314;10.022;2023-06-22T04:20:31;102037.63;;;17.12;100.00
20455;BME280;10386;54.314;10.022;2023-06-22T04:22:58;102051.84;;;17.06;100.00
20455;BME280;10386;54.314;10.022;2023-06-22T04:25:25;102054.19;;;17.10;100.00
20455;BME280;10386;54.314;10.022;2023-06-22T04:27:52;102065.66;;;17.72;100.00
20455;BME280;10386;54.314;10.022;2023-06-22T04:30:19;102069.31;;;18.58;100.00
20455;BME280;10386;54.314;10.022;2023-06-22T04:32:46;102087.25;;;18.84;100.00
20455;BME280;10386;54.314;10.022;2023-06-22T04:35:25;102102.00;;;18.83;100.00
20455;BME280;10386;54.314;10.022;2023-06-22T04:37:53;102117.53;;;18.84;100.00
20455;BME280;10386;54.314;10.022;2023-06-22T04:40:23;102116.66;;;19.15;100.00
20455;BME280;10386;54.314;10.022;2023-06-22T04:42:49;102129.19;;;19.60;100.00
20455;BME280;10386;54.314;10.022;2023-06-22T04:45:20;102137.31;;;19.61;100.00
20455;BME280;10386;54.314;10.022;2023-06-22T04:47:48;102140.50;;;19.87;100.00
20455;BME280;10386;54.314;10.022;2023-06-22T04:50:15;102166.66;;;19.31;100.00
20455;BME280;10386;54.314;10.022;2023-06-22T04:52:42;102168.69;;;19.50;100.00
20455;BME280;10386;54.314;10.022;2023-06-22T04:55:09;102176.63;;;19.01;100.00
20455;BME280;10386;54.314;10.022;2023-06-22T04:57:38;102177.13;;;18.41;100.00
20455;BME280;10386;54.314;10.022;2023-06-22T05:00:06;102179.13;;;17.96;100.00
20455;BME280;10386;54.314;10.022;2023-06-22T05:02:44;102181.00;;;18.28;100.00
20455;BME280;10386;54.314;10.022;2023-06-22T05:05:15;102184.13;;;18.23;100.00
20455;BME280;10386;54.314;10.022;2023-06-22T05:07:44;102180.88;;;18.18;100.00
20455;BME280;10386;54.314;10.022;2023-06-22T05:10:12;102180.88;;;18.18;100.00
20455;BME280;10386;54.314;10.022;2023-06-22T05:12:46;102173.88;;;18.14;100.00
20455;BME280;10386;54.314;10.022;2023-06-22T05:15:12;102166.50;;;18.48;100.00
20455;BME280;10386;54.314;10.022;2023-06-22T05:17:39;102175.88;;;18.45;100.00
20455;BME280;10386;54.314;10.022;2023-06-22T05:20:15;102164.09;;;18.65;100.00
20455;BME280;10386;54.314;10.022;2023-06-22T05:22:44;102162.59;;;19.04;100.00
20455;BME280;10386;54.314;10.022;2023-06-22T05:25:13;102168.59;;;18.55;100.00
20455;BME280;10386;54.314;10.022;2023-06-22T05:27:39;102171.31;;;18.88;100.00
20455;BME280;10386;54.314;10.022;2023-06-22T05:30:07;102164.25;;;18.53;100.00
20455;BME280;10386;54.314;10.022;2023-06-22T05:32:35;102177.38;;;18.49;100.00
20455;BME280;10386;54.314;10.022;2023-06-22T05:35:03;102174.88;;;18.46;100.00
20455;BME280;10386;54.314;10.022;2023-06-22T05:37:30;102171.47;;;18.65;100.00
20455;BME280;10386;54.314;10.022;2023-06-22T05:39:57;102168.09;;;19.04;100.00
20455;BME280;10386;54.314;10.022;2023-06-22T05:42:23;102167.72;;;19.08;100.00
20455;BME280;10386;54.314;10.022;2023-06-22T05:44:57;102172.63;;;19.36;100.00
20455;BME280;10386;54.314;10.022;2023-06-22T05:47:33;102168.69;;;19.70;100.00
20455;BME280;10386;54.314;10.022;2023-06-22T05:50:08;102170.66;;;19.79;100.00
20455;BME280;10386;54.314;10.022;2023-06-22T05:52:38;102179.41;;;19.93;100.00
20455;BME280;10386;54.314;10.022;2023-06-22T05:55:05;102183.72;;;19.86;100.00
20455;BME280;10386;54.314;10.022;2023-06-22T05:57:32;102186.56;;;20.16;100.00
20455;BME280;10386;54.314;10.022;2023-06-22T05:59:59;102194.59;;;20.29;100.00
20455;BME280;10386;54.314;10.022;2023-06-22T06:02:26;102200.91;;;19.90;100.00
20455;BME280;10386;54.314;10.022;2023-06-22T06:04:53;102208.03;;;19.72;100.00
20455;BME280;10386;54.314;10.022;2023-06-22T06:07:20;102212.13;;;19.77;100.00
20455;BME280;10386;54.314;10.022;2023-06-22T06:09:48;102214.31;;;19.83;100.00
20455;BME280;10386;54.314;10.022;2023-06-22T06:12:15;102206.06;;;20.94;100.00
20455;BME280;10386;54.314;10.022;2023-06-22T06:14:42;102209.31;;;21.55;100.00
20455;BME280;10386;54.314;10.022;2023-06-22T06:17:08;102211.41;;;22.37;100.00
20455;BME280;10386;54.314;10.022;2023-06-22T06:19:35;102220.31;;;23.39;100.00
20455;BME280;10386;54.314;10.022;2023-06-22T06:22:02;102219.53;;;23.02;100.00
20455;BME280;10386;54.314;10.022;2023-06-22T06:24:29;102213.41;;;22.44;100.00
20455;BME280;10386;54.314;10.022;2023-06-22T06:26:56;102218.38;;;22.32;100.00
20455;BME280;10386;54.314;10.022;2023-06-22T06:29:23;102220.47;;;22.20;100.00
20455;BME280;10386;54.314;10.022;2023-06-22T06:31:50;102227.53;;;23.32;100.00
20455;BME280;10386;54.314;10.022;2023-06-22T06:34:20;102200.06;;;24.75;100.00
20455;BME280;10386;54.314;10.022;2023-06-22T06:36:47;102210.34;;;23.81;100.00
20455;BME280;10386;54.314;10.022;2023-06-22T06:39:13;102216.06;;;23.44;100.00
20455;BME280;10386;54.314;10.022;2023-06-22T06:41:40;102220.34;;;23.56;100.00
20455;BME280;10386;54.314;10.022;2023-06-22T06:44:07;102216.09;;;27.04;100.00
20455;BME280;10386;54.314;10.022;2023-06-22T06:46:34;102163.16;;;27.94;100.00
20455;BME280;10386;54.314;10.022;2023-06-22T06:49:01;102123.53;;;28.41;100.00
20455;BME280;10386;54.314;10.022;2023-06-22T06:51:28;102116.91;;;29.07;100.00
20455;BME280;10386;54.314;10.022;2023-06-22T06:53:54;102102.72;;;28.15;100.00
20455;BME280;10386;54.314;10.022;2023-06-22T06:56:21;102083.78;;;27.88;100.00
20455;BME280;10386;54.314;10.022;2023-06-22T06:58:50;102117.34;;;25.34;100.00
20455;BME280;10386;54.314;10.022;2023-06-22T07:01:17;102193.44;;;27.82;100.00
20455;BME280;10386;54.314;10.022;2023-06-22T07:03:48;102059.06;;;28.57;100.00
20455;BME280;10386;54.314;10.022;2023-06-22T07:06:15;102079.59;;;28.50;100.00
20455;BME280;10386;54.314;10.022;2023-06-22T07:08:43;102074.63;;;26.98;100.00
20455;BME280;10386;54.314;10.022;2023-06-22T07:11:09;102118.75;;;25.46;100.00
20455;BME280;10386;54.314;10.022;2023-06-22T07:13:36;102135.16;;;28.02;100.00
20455;BME280;10386;54.314;10.022;2023-06-22T07:16:03;102074.19;;;28.20;100.00
20455;BME280;10386;54.314;10.022;2023-06-22T07:18:30;102067.91;;;28.03;100.00
20455;BME280;10386;54.314;10.022;2023-06-22T07:20:57;102066.22;;;28.95;100.00
20455;BME280;10386;54.314;10.022;2023-06-22T07:23:24;102035.94;;;28.06;100.00
20455;BME280;10386;54.314;10.022;2023-06-22T07:25:51;102038.38;;;29.08;100.00
20455;BME280;10386;54.314;10.022;2023-06-22T07:28:21;102065.91;;;27.83;100.00
20455;BME280;10386;54.314;10.022;2023-06-22T07:30:48;102119.38;;;26.66;100.00
20455;BME280;10386;54.314;10.022;2023-06-22T07:33:19;102142.38;;;25.42;100.00
20455;BME280;10386;54.314;10.022;2023-06-22T07:35:46;102161.88;;;24.85;100.00
20455;BME280;10386;54.314;10.022;2023-06-22T07:38:14;102188.81;;;24.25;100.00
20455;BME280;10386;54.314;10.022;2023-06-22T07:40:42;102200.75;;;23.92;100.00
20455;BME280;10386;54.314;10.022;2023-06-22T07:43:08;102201.56;;;24.10;100.00
20455;BME280;10386;54.314;10.022;2023-06-22T07:45:37;102233.47;;;23.72;100.00
20455;BME280;10386;54.314;10.022;2023-06-22T07:48:09;102220.25;;;23.04;100.00
20455;BME280;10386;54.314;10.022;2023-06-22T07:50:36;102223.41;;;23.36;100.00
20455;BME280;10386;54.314;10.022;2023-06-22T07:53:03;102220.56;;;23.97;100.00
20455;BME280;10386;54.314;10.022;2023-06-22T07:55:29;102206.53;;;24.50;100.00
20455;BME280;10386;54.314;10.022;2023-06-22T07:57:56;102195.25;;;24.26;100.00
20455;BME280;10386;54.314;10.022;2023-06-22T08:00:24;102203.31;;;24.37;100.00
20455;BME280;10386;54.314;10.022;2023-06-22T08:02:51;102205.97;;;24.80;100.00
20455;BME280;10386;54.314;10.022;2023-06-22T08:05:18;102201.97;;;24.74;100.00
20455;BME280;10386;54.314;10.022;2023-06-22T08:07:59;102201.81;;;25.25;100.00
20455;BME280;10386;54.314;10.022;2023-06-22T08:10:26;102182.69;;;24.73;100.00
20455;BME280;10386;54.314;10.022;2023-06-22T08:12:53;102179.78;;;25.47;100.00
20455;BME280;10386;54.314;10.022;2023-06-22T08:15:20;102149.91;;;24.84;100.00
20455;BME280;10386;54.314;10.022;2023-06-22T08:17:48;102161.25;;;24.57;100.00
20455;BME280;10386;54.314;10.022;2023-06-22T08:20:15;102196.47;;;24.90;100.00
20455;BME280;10386;54.314;10.022;2023-06-22T08:22:43;102177.13;;;24.14;100.00
20455;BME280;10386;54.314;10.022;2023-06-22T08:25:12;102187.13;;;24.07;100.00
20455;BME280;10386;54.314;10.022;2023-06-22T08:27:40;102193.00;;;24.29;100.00
20455;BME280;10386;54.314;10.022;2023-06-22T08:30:07;102182.94;;;24.95;100.00
20455;BME280;10386;54.314;10.022;2023-06-22T08:32:37;102176.09;;;25.39;100.00
20455;BME280;10386;54.314;10.022;2023-06-22T08:35:04;102126.03;;;24.58;100.00
20455;BME280;10386;54.314;10.022;2023-06-22T08:37:35;102113.47;;;25.03;100.00
20455;BME280;10386;54.314;10.022;2023-06-22T08:40:04;102141.88;;;25.31;100.00
20455;BME280;10386;54.314;10.022;2023-06-22T08:42:36;102162.88;;;25.25;100.00
20455;BME280;10386;54.314;10.022;2023-06-22T08:45:03;102151.78;;;25.41;100.00
20455;BME280;10386;54.314;10.022;2023-06-22T08:47:30;102151.91;;;25.16;100.00
20455;BME280;10386;54.314;10.022;2023-06-22T08:49:57;102128.41;;;24.94;100.00
20455;BME280;10386;54.314;10.022;2023-06-22T08:52:24;102140.75;;;25.08;100.00
20455;BME280;10386;54.314;10.022;2023-06-22T08:54:51;102144.28;;;25.81;100.00
20455;BME280;10386;54.314;10.022;2023-06-22T08:57:18;102127.63;;;25.89;100.00
20455;BME280;10386;54.314;10.022;2023-06-22T08:59:45;102130.03;;;26.08;100.00
20455;BME280;10386;54.314;10.022;2023-06-22T09:02:11;102127.66;;;26.52;100.00
20455;BME280;10386;54.314;10.022;2023-06-22T09:04:41;102116.53;;;26.52;100.00
20455;BME280;10386;54.314;10.022;2023-06-22T09:07:09;102106.38;;;26.04;100.00
20455;BME280;10386;54.314;10.022;2023-06-22T09:09:35;102096.84;;;25.83;100.00
20455;BME280;10386;54.314;10.022;2023-06-22T09:12:02;102094.34;;;26.12;100.00
20455;BME280;10386;54.314;10.022;2023-06-22T09:14:29;102102.09;;;26.79;100.00
20455;BME280;10386;54.314;10.022;2023-06-22T09:16:56;102081.84;;;26.84;100.00
20455;BME280;10386;54.314;10.022;2023-06-22T09:19:23;102085.72;;;26.37;100.00
20455;BME280;10386;54.314;10.022;2023-06-22T09:21:50;102107.78;;;26.55;100.00
20455;BME280;10386;54.314;10.022;2023-06-22T09:24:17;102109.91;;;26.45;100.00
20455;BME280;10386;54.314;10.022;2023-06-22T09:26:43;102105.28;;;26.68;100.00
20455;BME280;10386;54.314;10.022;2023-06-22T09:29:10;102085.63;;;26.15;100.00
20455;BME280;10386;54.314;10.022;2023-06-22T09:31:37;102102.06;;;25.22;100.00
20455;BME280;10386;54.314;10.022;2023-06-22T09:34:04;102128.78;;;26.19;100.00
20455;BME280;10386;54.314;10.022;2023-06-22T09:36:31;102113.41;;;26.77;100.00
20455;BME280;10386;54.314;10.022;2023-06-22T09:38:58;102102.25;;;26.47;100.00
20455;BME280;10386;54.314;10.022;2023-06-22T09:41:25;102110.22;;;25.63;100.00
20455;BME280;10386;54.314;10.022;2023-06-22T09:43:52;102103.97;;;25.61;100.00
20455;BME280;10386;54.314;10.022;2023-06-22T09:46:22;102138.72;;;26.68;100.00
20455;BME280;10386;54.314;10.022;2023-06-22T09:48:51;102125.03;;;27.19;100.00
20455;BME280;10386;54.314;10.022;2023-06-22T09:51:18;102079.75;;;26.02;100.00
20455;BME280;10386;54.314;10.022;2023-06-22T09:53:47;102137.41;;;26.56;100.00
20455;BME280;10386;54.314;10.022;2023-06-22T09:56:14;102121.06;;;26.83;100.00
20455;BME280;10386;54.314;10.022;2023-06-22T09:58:42;102105.81;;;26.93;100.00
20455;BME280;10386;54.314;10.022;2023-06-22T10:01:09;102095.41;;;27.18;100.00
20455;BME280;10386;54.314;10.022;2023-06-22T10:03:41;102086.03;;;27.11;100.00
20455;BME280;10386;54.314;10.022;2023-06-22T10:06:11;102061.38;;;27.22;100.00
20455;BME280;10386;54.314;10.022;2023-06-22T10:08:37;102063.38;;;27.14;100.00
20455;BME280;10386;54.314;10.022;2023-06-22T10:11:05;102076.53;;;26.21;100.00
20455;BME280;10386;54.314;10.022;2023-06-22T10:13:32;102102.56;;;25.97;100.00
20455;BME280;10386;54.314;10.022;2023-06-22T10:15:59;102112.69;;;26.53;100.00
20455;BME280;10386;54.314;10.022;2023-06-22T10:18:26;102100.69;;;27.13;100.00
20455;BME280;10386;54.314;10.022;2023-06-22T10:20:52;102084.41;;;27.16;100.00
20455;BME280;10386;54.314;10.022;2023-06-22T10:23:20;102093.84;;;27.15;100.00
20455;BME280;10386;54.314;10.022;2023-06-22T10:25:47;102083.34;;;27.25;100.00
20455;BME280;10386;54.314;10.022;2023-06-22T10:28:14;102056.75;;;28.03;100.00
20455;BME280;10386;54.314;10.022;2023-06-22T10:30:42;102045.00;;;28.36;98.63
20455;BME280;10386;54.314;10.022;2023-06-22T10:33:09;102047.78;;;28.08;97.80
20455;BME280;10386;54.314;10.022;2023-06-22T10:35:36;102051.88;;;28.34;97.05
20455;BME280;10386;54.314;10.022;2023-06-22T10:38:04;102056.28;;;28.43;96.64
20455;BME280;10386;54.314;10.022;2023-06-22T10:40:32;102063.41;;;28.17;96.35
20455;BME280;10386;54.314;10.022;2023-06-22T10:42:58;102043.94;;;27.80;94.43
20455;BME280;10386;54.314;10.022;2023-06-22T10:45:25;102066.19;;;27.88;95.85
20455;BME280;10386;54.314;10.022;2023-06-22T10:47:54;102056.25;;;27.71;94.95
20455;BME280;10386;54.314;10.022;2023-06-22T10:50:21;102058.97;;;27.79;94.02
20455;BME280;10386;54.314;10.022;2023-06-22T10:52:50;102055.44;;;28.28;92.86
20455;BME280;10386;54.314;10.022;2023-06-22T10:55:17;102051.44;;;28.23;92.50
20455;BME280;10386;54.314;10.022;2023-06-22T10:57:44;102035.38;;;28.10;90.51
20455;BME280;10386;54.314;10.022;2023-06-22T11:00:14;102046.72;;;28.52;90.42
20455;BME280;10386;54.314;10.022;2023-06-22T11:02:43;102030.44;;;28.55;87.74
20455;BME280;10386;54.314;10.022;2023-06-22T11:05:10;102026.00;;;28.03;85.42
20455;BME280;10386;54.314;10.022;2023-06-22T11:07:37;102046.84;;;28.15;85.18
20455;BME280;10386;54.314;10.022;2023-06-22T11:10:05;102048.50;;;28.74;84.84
20455;BME280;10386;54.314;10.022;2023-06-22T11:12:32;102042.97;;;28.45;85.06
20455;BME280;10386;54.314;10.022;2023-06-22T11:14:59;102072.25;;;27.91;89.66
20455;BME280;10386;54.314;10.022;2023-06-22T11:17:25;102102.28;;;28.76;92.09
20455;BME280;10386;54.314;10.022;2023-06-22T11:19:52;102091.38;;;28.81;91.08
20455;BME280;10386;54.314;10.022;2023-06-22T11:22:19;102058.41;;;27.98;90.87
20455;BME280;10386;54.314;10.022;2023-06-22T11:24:46;102090.91;;;27.54;94.86
20455;BME280;10386;54.314;10.022;2023-06-22T11:27:13;102110.41;;;28.13;98.51
20455;BME280;10386;54.314;10.022;2023-06-22T11:29:39;102101.06;;;28.06;97.51
20455;BME280;10386;54.314;10.022;2023-06-22T11:32:07;102099.25;;;28.42;97.88
20455;BME280;10386;54.314;10.022;2023-06-22T11:34:35;102088.16;;;28.20;95.95
20455;BME280;10386;54.314;10.022;2023-06-22T11:37:02;102104.94;;;28.48;98.40
20455;BME280;10386;54.314;10.022;2023-06-22T11:39:29;102093.00;;;28.40;96.54
20455;BME280;10386;54.314;10.022;2023-06-22T11:42:09;102096.47;;;28.56;97.89
20455;BME280;10386;54.314;10.022;2023-06-22T11:44:36;102101.28;;;28.48;98.28
20455;BME280;10386;54.314;10.022;2023-06-22T11:47:03;102084.06;;;28.30;97.93
20455;BME280;10386;54.314;10.022;2023-06-22T11:49:31;102105.47;;;27.86;100.00
20455;BME280;10386;54.314;10.022;2023-06-22T11:51:58;102093.84;;;28.12;100.00
20455;BME280;10386;54.314;10.022;2023-06-22T11:54:24;102060.78;;;27.86;97.74
20455;BME280;10386;54.314;10.022;2023-06-22T11:56:52;102075.41;;;27.88;99.46
20455;BME280;10386;54.314;10.022;2023-06-22T11:59:19;102072.84;;;28.16;98.13
20455;BME280;10386;54.314;10.022;2023-06-22T12:01:48;102078.28;;;28.81;99.37
20455;BME280;10386;54.314;10.022;2023-06-22T12:04:17;102053.28;;;28.44;97.13
20455;BME280;10386;54.314;10.022;2023-06-22T12:06:44;102061.56;;;28.52;98.50
20455;BME280;10386;54.314;10.022;2023-06-22T12:09:12;102056.22;;;28.72;96.74
20455;BME280;10386;54.314;10.022;2023-06-22T12:11:40;102052.44;;;29.15;96.56
20455;BME280;10386;54.314;10.022;2023-06-22T12:14:07;102035.44;;;29.16;93.74
20455;BME280;10386;54.314;10.022;2023-06-22T12:16:33;102019.81;;;29.01;93.82
20455;BME280;10386;54.314;10.022;2023-06-22T12:19:00;102038.69;;;28.63;94.67
20455;BME280;10386;54.314;10.022;2023-06-22T12:21:27;102035.31;;;28.68;93.89
20455;BME280;10386;54.314;10.022;2023-06-22T12:23:55;102029.19;;;28.93;94.26
20455;BME280;10386;54.314;10.022;2023-06-22T12:26:22;102022.03;;;29.54;93.13
20455;BME280;10386;54.314;10.022;2023-06-22T12:28:49;102023.13;;;29.11;95.03
20455;BME280;10386;54.314;10.022;2023-06-22T12:31:17;102022.66;;;29.07;95.94
20455;BME280;10386;54.314;10.022;2023-06-22T12:33:44;102041.69;;;29.39;95.55
20455;BME280;10386;54.314;10.022;2023-06-22T12:36:11;102051.91;;;29.26;96.85
20455;BME280;10386;54.314;10.022;2023-06-22T12:38:37;102042.16;;;29.43;96.88
20455;BME280;10386;54.314;10.022;2023-06-22T12:41:04;102019.31;;;29.39;96.23
20455;BME280;10386;54.314;10.022;2023-06-22T12:43:31;102043.22;;;29.42;97.86